METAR Data
IDs: Format: Raw Decoded Include TAF

Data at: 1641 UTC 03 Dec 2021

KSPB 031553Z AUTO 34004KT 10SM CLR 03/01 A3028 RMK AO2 SLP252 T00330006
KSPB 031453Z AUTO 32004KT 10SM CLR 01/M01 A3029 RMK AO2 SLP256 T00111006 58003
KSPB 031353Z AUTO 34004KT 10SM CLR 03/01 A3029 RMK AO2 SLP257 T00330011
KSPB 031253Z AUTO 33004KT 10SM CLR 02/00 A3031 RMK AO2 SLP263 T00170000
KSPB 031153Z AUTO 00000KT 10SM CLR 02/00 A3030 RMK AO2 SLP259 T00220000 10067 20011 58006
KSPB 031053Z AUTO 32003KT 10SM CLR 03/00 A3031 RMK AO2 SLP265 T00280000
KSPB 030953Z AUTO 35004KT 10SM CLR 04/01 A3032 RMK AO2 SLP266 T00440006
KSPB 030853Z AUTO 32004KT 10SM CLR 04/01 A3031 RMK AO2 SLP265 T00440006 58006
KSPB 030753Z AUTO 31005KT 10SM CLR 06/01 A3034 RMK AO2 SLP273 T00610011 401280050
KSPB 030653Z AUTO 32003KT 10SM CLR 07/01 A3034 RMK AO2 SLP272 T00670011
KSPB 030553Z AUTO 00000KT 10SM CLR 07/02 A3033 RMK AO2 SLP271 T00670017 10100 20067 58002
KSPB 030453Z AUTO 34003KT 10SM CLR 07/02 A3034 RMK AO2 SLP275 T00720022
KSPB 030353Z AUTO 34003KT 10SM CLR 07/02 A3034 RMK AO2 SLP275 T00720022
KSPB 030253Z AUTO 33004KT 10SM CLR 08/02 A3034 RMK AO2 SLP273 T00780022 53007
KSPB 030153Z AUTO 34004KT 10SM CLR 08/03 A3032 RMK AO2 SLP268 T00830033
KSPB 030053Z AUTO 32006KT 10SM CLR 09/04 A3032 RMK AO2 SLP268 T00890039
KSPB 022353Z AUTO 34006KT 10SM BKN055 10/04 A3032 RMK AO2 SLP265 T01000039 10122 20100 53000
KSPB 022253Z AUTO 32005KT 10SM BKN050 11/03 A3031 RMK AO2 SLP264 T01110033
KSPB 022153Z AUTO 35010KT 10SM SCT050 11/03 A3031 RMK AO2 SLP263 T01110033
KSPB 022053Z AUTO 32008KT 10SM OVC050 12/04 A3031 RMK AO2 SLP265 T01170039 51004
KSPB 021953Z AUTO 34009KT 10SM BKN046 12/06 A3032 RMK AO2 SLP265 T01170056
KSPB 021853Z AUTO 34005KT 10SM FEW020 FEW027 OVC044 12/07 A3032 RMK AO2 SLP265 T01170067
KSPB 021753Z AUTO 32004KT 10SM SCT027 OVC047 11/07 A3030 RMK AO2 SLP261 T01110072 10122 20067 53017
KSPB 021653Z AUTO 00000KT 10SM BKN050 09/07 A3028 RMK AO2 SLP254 T00890072
KSPB 021553Z AUTO 30003KT 10SM CLR 07/06 A3027 RMK AO2 SLP249 T00720056
KSPB 021453Z AUTO 00000KT 10SM CLR 08/06 A3025 RMK AO2 SLP245 T00780061 53010
KSPB 021353Z AUTO 36003KT 10SM CLR 10/07 A3024 RMK AO2 SLP239 T01000067
KSPB 021253Z AUTO 28005KT 10SM CLR 11/07 A3023 RMK AO2 SLP238 T01110072
KSPB 021239Z AUTO 00000KT 10SM SCT026 12/07 A3022 RMK AO2 T01170072
KSPB 021153Z AUTO 33004KT 10SM OVC025 12/09 A3023 RMK AO2 SLP235 T01220089 10128 20106 53006
KSPB 021053Z AUTO VRB03KT 10SM OVC023 12/09 A3021 RMK AO2 SLP228 T01170094
KSPB 021008Z AUTO 28003KT 10SM BKN025 BKN032 OVC047 11/10 A3021 RMK AO2 T01110100
KSPB 020953Z AUTO 00000KT 10SM FEW025 BKN037 OVC047 11/09 A3020 RMK AO2 SLP228 T01060094
KSPB 020853Z AUTO 00000KT 10SM BKN050 OVC110 11/10 A3021 RMK AO2 SLP228 T01110100 51012
KSPB 020753Z AUTO 00000KT 10SM SCT047 OVC100 11/10 A3020 RMK AO2 SLP227 T01110100 401500061
KSPB 020653Z AUTO 34004KT 10SM BKN100 12/09 A3019 RMK AO2 SLP223 T01220094
KSPB 020553Z AUTO 00000KT 10SM OVC090 12/11 A3017 RMK AO2 SLP216 T01220106 10144 20117 53008
KSPB 020453Z AUTO 07003KT 10SM OVC100 12/10 A3016 RMK AO2 SLP211 T01170100